sensor_id;sensor_type;location;lat;lon;timestamp;P1;durP1;ratioP1;P2;durP2;ratioP2
70832;SDS011;71099;59.528;17.886;2023-10-09T00:01:10;4.97;;;0.43;;
70832;SDS011;71099;59.528;17.886;2023-10-09T00:03:41;2.38;;;0.50;;
70832;SDS011;71099;59.528;17.886;2023-10-09T00:06:08;1.83;;;0.60;;
70832;SDS011;71099;59.528;17.886;2023-10-09T00:08:37;0.20;;;0.13;;
70832;SDS011;71099;59.528;17.886;2023-10-09T00:11:04;0.60;;;0.38;;
70832;SDS011;71099;59.528;17.886;2023-10-09T00:13:46;0.75;;;0.40;;
70832;SDS011;71099;59.528;17.886;2023-10-09T00:16:18;0.33;;;0.33;;
70832;SDS011;71099;59.528;17.886;2023-10-09T00:19:02;1.15;;;0.55;;
70832;SDS011;71099;59.528;17.886;2023-10-09T00:21:55;0.52;;;0.20;;
70832;SDS011;71099;59.528;17.886;2023-10-09T00:24:21;1.90;;;0.60;;
70832;SDS011;71099;59.528;17.886;2023-10-09T00:26:52;1.08;;;0.40;;
70832;SDS011;71099;59.528;17.886;2023-10-09T00:29:21;0.85;;;0.85;;
70832;SDS011;71099;59.528;17.886;2023-10-09T00:31:50;1.27;;;0.40;;
70832;SDS011;71099;59.528;17.886;2023-10-09T00:34:20;0.77;;;0.55;;
70832;SDS011;71099;59.528;17.886;2023-10-09T00:36:47;3.40;;;0.35;;
70832;SDS011;71099;59.528;17.886;2023-10-09T00:39:19;0.65;;;0.38;;
70832;SDS011;71099;59.528;17.886;2023-10-09T00:42:06;0.75;;;0.40;;
70832;SDS011;71099;59.528;17.886;2023-10-09T00:44:32;2.10;;;0.43;;
70832;SDS011;71099;59.528;17.886;2023-10-09T00:47:13;1.27;;;0.70;;
70832;SDS011;71099;59.528;17.886;2023-10-09T00:49:51;0.85;;;0.55;;
70832;SDS011;71099;59.528;17.886;2023-10-09T00:52:29;2.83;;;0.30;;
70832;SDS011;71099;59.528;17.886;2023-10-09T00:55:01;1.33;;;0.47;;
70832;SDS011;71099;59.528;17.886;2023-10-09T00:58:03;2.20;;;0.35;;
70832;SDS011;71099;59.528;17.886;2023-10-09T01:03:10;1.17;;;0.50;;
70832;SDS011;71099;59.528;17.886;2023-10-09T01:05:47;2.25;;;0.70;;
70832;SDS011;71099;59.528;17.886;2023-10-09T01:08:26;1.20;;;0.65;;
70832;SDS011;71099;59.528;17.886;2023-10-09T01:11:06;1.75;;;0.40;;
70832;SDS011;71099;59.528;17.886;2023-10-09T01:13:35;0.88;;;0.70;;
70832;SDS011;71099;59.528;17.886;2023-10-09T01:16:18;0.38;;;0.32;;
70832;SDS011;71099;59.528;17.886;2023-10-09T01:18:50;2.65;;;0.30;;
70832;SDS011;71099;59.528;17.886;2023-10-09T01:21:22;0.30;;;0.30;;
70832;SDS011;71099;59.528;17.886;2023-10-09T01:23:50;0.38;;;0.25;;
70832;SDS011;71099;59.528;17.886;2023-10-09T01:26:40;0.52;;;0.22;;
70832;SDS011;71099;59.528;17.886;2023-10-09T01:29:10;0.80;;;0.80;;
70832;SDS011;71099;59.528;17.886;2023-10-09T01:31:40;0.50;;;0.30;;
70832;SDS011;71099;59.528;17.886;2023-10-09T01:34:29;0.55;;;0.40;;
70832;SDS011;71099;59.528;17.886;2023-10-09T01:37:10;1.48;;;0.20;;
70832;SDS011;71099;59.528;17.886;2023-10-09T01:39:42;2.25;;;0.40;;
70832;SDS011;71099;59.528;17.886;2023-10-09T01:42:10;1.20;;;0.63;;
70832;SDS011;71099;59.528;17.886;2023-10-09T01:44:35;0.50;;;0.40;;
70832;SDS011;71099;59.528;17.886;2023-10-09T01:47:08;0.28;;;0.25;;
70832;SDS011;71099;59.528;17.886;2023-10-09T01:49:39;0.70;;;0.25;;
70832;SDS011;71099;59.528;17.886;2023-10-09T01:52:14;0.43;;;0.30;;
70832;SDS011;71099;59.528;17.886;2023-10-09T01:54:47;2.17;;;0.40;;
70832;SDS011;71099;59.528;17.886;2023-10-09T01:57:17;0.70;;;0.35;;
70832;SDS011;71099;59.528;17.886;2023-10-09T01:59:50;1.13;;;0.40;;
70832;SDS011;71099;59.528;17.886;2023-10-09T02:02:18;0.75;;;0.47;;
70832;SDS011;71099;59.528;17.886;2023-10-09T02:05:00;0.68;;;0.30;;
70832;SDS011;71099;59.528;17.886;2023-10-09T02:07:39;1.15;;;0.40;;
70832;SDS011;71099;59.528;17.886;2023-10-09T02:10:16;0.57;;;0.25;;
70832;SDS011;71099;59.528;17.886;2023-10-09T02:15:39;1.17;;;0.40;;
70832;SDS011;71099;59.528;17.886;2023-10-09T02:18:14;1.95;;;0.20;;
70832;SDS011;71099;59.528;17.886;2023-10-09T02:23:37;1.65;;;0.32;;
70832;SDS011;71099;59.528;17.886;2023-10-09T02:26:12;4.70;;;0.47;;
70832;SDS011;71099;59.528;17.886;2023-10-09T02:28:54;1.85;;;0.52;;
70832;SDS011;71099;59.528;17.886;2023-10-09T02:31:24;0.68;;;0.30;;
70832;SDS011;71099;59.528;17.886;2023-10-09T02:33:53;1.55;;;0.22;;
70832;SDS011;71099;59.528;17.886;2023-10-09T02:36:21;0.28;;;0.28;;
70832;SDS011;71099;59.528;17.886;2023-10-09T02:38:47;0.28;;;0.20;;
70832;SDS011;71099;59.528;17.886;2023-10-09T02:41:14;0.55;;;0.30;;
70832;SDS011;71099;59.528;17.886;2023-10-09T02:43:40;1.48;;;0.20;;
70832;SDS011;71099;59.528;17.886;2023-10-09T02:46:16;0.57;;;0.28;;
70832;SDS011;71099;59.528;17.886;2023-10-09T02:48:52;0.52;;;0.30;;
70832;SDS011;71099;59.528;17.886;2023-10-09T02:51:21;0.13;;;0.13;;
70832;SDS011;71099;59.528;17.886;2023-10-09T02:53:56;0.38;;;0.20;;
70832;SDS011;71099;59.528;17.886;2023-10-09T02:56:25;0.45;;;0.20;;
70832;SDS011;71099;59.528;17.886;2023-10-09T02:59:12;0.32;;;0.22;;
70832;SDS011;71099;59.528;17.886;2023-10-09T03:01:39;1.00;;;0.20;;
70832;SDS011;71099;59.528;17.886;2023-10-09T03:04:05;0.65;;;0.30;;
70832;SDS011;71099;59.528;17.886;2023-10-09T03:06:32;1.88;;;0.30;;
70832;SDS011;71099;59.528;17.886;2023-10-09T03:09:03;0.15;;;0.15;;
70832;SDS011;71099;59.528;17.886;2023-10-09T03:11:43;0.52;;;0.30;;
70832;SDS011;71099;59.528;17.886;2023-10-09T03:14:13;0.40;;;0.30;;
70832;SDS011;71099;59.528;17.886;2023-10-09T03:16:39;0.47;;;0.30;;
70832;SDS011;71099;59.528;17.886;2023-10-09T03:19:04;1.42;;;0.40;;
70832;SDS011;71099;59.528;17.886;2023-10-09T03:21:30;1.15;;;0.43;;
70832;SDS011;71099;59.528;17.886;2023-10-09T03:23:55;0.57;;;0.28;;
70832;SDS011;71099;59.528;17.886;2023-10-09T03:26:21;0.98;;;0.50;;
70832;SDS011;71099;59.528;17.886;2023-10-09T03:28:51;2.58;;;0.50;;
70832;SDS011;71099;59.528;17.886;2023-10-09T03:31:17;2.45;;;0.20;;
70832;SDS011;71099;59.528;17.886;2023-10-09T03:33:43;0.57;;;0.30;;
70832;SDS011;71099;59.528;17.886;2023-10-09T03:36:08;1.15;;;0.20;;
70832;SDS011;71099;59.528;17.886;2023-10-09T03:38:37;0.77;;;0.35;;
70832;SDS011;71099;59.528;17.886;2023-10-09T03:41:04;1.17;;;0.52;;
70832;SDS011;71099;59.528;17.886;2023-10-09T03:43:34;0.52;;;0.20;;
70832;SDS011;71099;59.528;17.886;2023-10-09T03:46:04;0.85;;;0.20;;
70832;SDS011;71099;59.528;17.886;2023-10-09T03:48:57;2.30;;;0.30;;
70832;SDS011;71099;59.528;17.886;2023-10-09T03:51:25;0.60;;;0.30;;
70832;SDS011;71099;59.528;17.886;2023-10-09T03:53:51;0.70;;;0.32;;
70832;SDS011;71099;59.528;17.886;2023-10-09T03:56:20;0.73;;;0.28;;
70832;SDS011;71099;59.528;17.886;2023-10-09T03:58:49;0.13;;;0.13;;
70832;SDS011;71099;59.528;17.886;2023-10-09T04:01:18;0.82;;;0.28;;
70832;SDS011;71099;59.528;17.886;2023-10-09T04:03:52;0.38;;;0.20;;
70832;SDS011;71099;59.528;17.886;2023-10-09T04:06:23;0.98;;;0.30;;
70832;SDS011;71099;59.528;17.886;2023-10-09T04:08:54;0.25;;;0.20;;
70832;SDS011;71099;59.528;17.886;2023-10-09T04:11:20;0.77;;;0.25;;
70832;SDS011;71099;59.528;17.886;2023-10-09T04:13:48;1.15;;;0.50;;
70832;SDS011;71099;59.528;17.886;2023-10-09T04:16:18;0.20;;;0.13;;
70832;SDS011;71099;59.528;17.886;2023-10-09T04:18:53;0.95;;;0.30;;
70832;SDS011;71099;59.528;17.886;2023-10-09T04:21:21;0.73;;;0.20;;
70832;SDS011;71099;59.528;17.886;2023-10-09T04:24:00;0.30;;;0.30;;
70832;SDS011;71099;59.528;17.886;2023-10-09T04:26:38;0.28;;;0.22;;
70832;SDS011;71099;59.528;17.886;2023-10-09T04:29:10;0.10;;;0.10;;
70832;SDS011;71099;59.528;17.886;2023-10-09T04:31:44;2.22;;;0.35;;
70832;SDS011;71099;59.528;17.886;2023-10-09T04:34:19;0.50;;;0.30;;
70832;SDS011;71099;59.528;17.886;2023-10-09T04:36:54;0.40;;;0.35;;
70832;SDS011;71099;59.528;17.886;2023-10-09T04:39:44;1.85;;;0.28;;
70832;SDS011;71099;59.528;17.886;2023-10-09T04:42:15;0.50;;;0.50;;
70832;SDS011;71099;59.528;17.886;2023-10-09T04:44:50;1.95;;;0.35;;
70832;SDS011;71099;59.528;17.886;2023-10-09T04:47:39;0.50;;;0.30;;
70832;SDS011;71099;59.528;17.886;2023-10-09T04:50:14;0.65;;;0.32;;
70832;SDS011;71099;59.528;17.886;2023-10-09T04:52:43;0.40;;;0.30;;
70832;SDS011;71099;59.528;17.886;2023-10-09T04:55:08;0.82;;;0.32;;
70832;SDS011;71099;59.528;17.886;2023-10-09T04:57:37;1.65;;;0.32;;
70832;SDS011;71099;59.528;17.886;2023-10-09T05:00:11;1.00;;;0.35;;
70832;SDS011;71099;59.528;17.886;2023-10-09T05:02:50;1.05;;;0.88;;
70832;SDS011;71099;59.528;17.886;2023-10-09T05:05:36;0.77;;;0.40;;
70832;SDS011;71099;59.528;17.886;2023-10-09T05:08:22;0.20;;;0.20;;
70832;SDS011;71099;59.528;17.886;2023-10-09T05:10:57;0.85;;;0.30;;
70832;SDS011;71099;59.528;17.886;2023-10-09T05:13:32;2.20;;;0.95;;
70832;SDS011;71099;59.528;17.886;2023-10-09T05:16:07;0.68;;;0.50;;
70832;SDS011;71099;59.528;17.886;2023-10-09T05:18:47;0.75;;;0.38;;
70832;SDS011;71099;59.528;17.886;2023-10-09T05:21:40;1.45;;;0.30;;
70832;SDS011;71099;59.528;17.886;2023-10-09T05:24:08;0.68;;;0.20;;
70832;SDS011;71099;59.528;17.886;2023-10-09T05:26:38;0.40;;;0.10;;
70832;SDS011;71099;59.528;17.886;2023-10-09T05:29:42;0.30;;;0.20;;
70832;SDS011;71099;59.528;17.886;2023-10-09T05:32:24;0.22;;;0.22;;
70832;SDS011;71099;59.528;17.886;2023-10-09T05:35:00;0.22;;;0.20;;
70832;SDS011;71099;59.528;17.886;2023-10-09T05:39:58;0.40;;;0.28;;
70832;SDS011;71099;59.528;17.886;2023-10-09T05:42:47;1.75;;;0.30;;
70832;SDS011;71099;59.528;17.886;2023-10-09T05:45:22;1.00;;;0.32;;
70832;SDS011;71099;59.528;17.886;2023-10-09T05:48:06;0.10;;;0.10;;
70832;SDS011;71099;59.528;17.886;2023-10-09T05:50:52;1.88;;;0.52;;
70832;SDS011;71099;59.528;17.886;2023-10-09T05:53:37;1.08;;;0.40;;
70832;SDS011;71099;59.528;17.886;2023-10-09T05:56:09;0.63;;;0.35;;
70832;SDS011;71099;59.528;17.886;2023-10-09T05:58:53;0.98;;;0.50;;
70832;SDS011;71099;59.528;17.886;2023-10-09T06:01:24;1.83;;;0.40;;
70832;SDS011;71099;59.528;17.886;2023-10-09T06:04:08;2.13;;;0.57;;
70832;SDS011;71099;59.528;17.886;2023-10-09T06:06:39;0.75;;;0.40;;
70832;SDS011;71099;59.528;17.886;2023-10-09T06:09:09;1.65;;;0.47;;
70832;SDS011;71099;59.528;17.886;2023-10-09T06:11:39;1.98;;;0.52;;
70832;SDS011;71099;59.528;17.886;2023-10-09T06:14:17;1.48;;;0.65;;
70832;SDS011;71099;59.528;17.886;2023-10-09T06:16:55;1.80;;;0.70;;
70832;SDS011;71099;59.528;17.886;2023-10-09T06:19:22;3.00;;;0.65;;
70832;SDS011;71099;59.528;17.886;2023-10-09T06:21:47;4.65;;;0.40;;
70832;SDS011;71099;59.528;17.886;2023-10-09T06:24:31;3.55;;;0.70;;
70832;SDS011;71099;59.528;17.886;2023-10-09T06:27:15;2.15;;;0.50;;
70832;SDS011;71099;59.528;17.886;2023-10-09T06:30:01;3.35;;;0.55;;
70832;SDS011;71099;59.528;17.886;2023-10-09T06:32:44;1.00;;;0.28;;
70832;SDS011;71099;59.528;17.886;2023-10-09T06:35:34;1.52;;;0.50;;
70832;SDS011;71099;59.528;17.886;2023-10-09T06:38:01;1.67;;;0.40;;
70832;SDS011;71099;59.528;17.886;2023-10-09T06:40:26;0.85;;;0.47;;
70832;SDS011;71099;59.528;17.886;2023-10-09T06:43:01;2.97;;;0.73;;
70832;SDS011;71099;59.528;17.886;2023-10-09T06:45:34;0.73;;;0.40;;
70832;SDS011;71099;59.528;17.886;2023-10-09T06:48:09;0.63;;;0.40;;
70832;SDS011;71099;59.528;17.886;2023-10-09T06:50:54;6.72;;;0.55;;
70832;SDS011;71099;59.528;17.886;2023-10-09T06:53:28;2.60;;;0.45;;
70832;SDS011;71099;59.528;17.886;2023-10-09T06:56:13;0.50;;;0.22;;
70832;SDS011;71099;59.528;17.886;2023-10-09T06:58:51;0.45;;;0.30;;
70832;SDS011;71099;59.528;17.886;2023-10-09T07:01:20;4.15;;;0.43;;
70832;SDS011;71099;59.528;17.886;2023-10-09T07:03:52;1.33;;;0.50;;
70832;SDS011;71099;59.528;17.886;2023-10-09T07:06:18;0.60;;;0.57;;
70832;SDS011;71099;59.528;17.886;2023-10-09T07:09:10;1.67;;;0.50;;
70832;SDS011;71099;59.528;17.886;2023-10-09T07:11:36;5.00;;;0.47;;
70832;SDS011;71099;59.528;17.886;2023-10-09T07:14:08;0.73;;;0.43;;
70832;SDS011;71099;59.528;17.886;2023-10-09T07:16:56;1.30;;;0.28;;
70832;SDS011;71099;59.528;17.886;2023-10-09T07:19:28;0.88;;;0.57;;
70832;SDS011;71099;59.528;17.886;2023-10-09T07:22:07;1.33;;;0.40;;
70832;SDS011;71099;59.528;17.886;2023-10-09T07:24:45;1.15;;;0.30;;
70832;SDS011;71099;59.528;17.886;2023-10-09T07:27:49;1.85;;;0.40;;
70832;SDS011;71099;59.528;17.886;2023-10-09T07:30:19;0.55;;;0.30;;
70832;SDS011;71099;59.528;17.886;2023-10-09T07:38:25;0.52;;;0.52;;
70832;SDS011;71099;59.528;17.886;2023-10-09T07:41:00;1.70;;;0.50;;
70832;SDS011;71099;59.528;17.886;2023-10-09T07:43:31;2.45;;;0.30;;
70832;SDS011;71099;59.528;17.886;2023-10-09T07:46:16;1.75;;;0.20;;
70832;SDS011;71099;59.528;17.886;2023-10-09T07:51:49;0.38;;;0.20;;
70832;SDS011;71099;59.528;17.886;2023-10-09T07:54:17;0.32;;;0.20;;
70832;SDS011;71099;59.528;17.886;2023-10-09T07:56:58;3.55;;;0.50;;
70832;SDS011;71099;59.528;17.886;2023-10-09T07:59:41;0.50;;;0.30;;
70832;SDS011;71099;59.528;17.886;2023-10-09T08:02:19;1.70;;;0.43;;
70832;SDS011;71099;59.528;17.886;2023-10-09T08:05:00;0.47;;;0.30;;
70832;SDS011;71099;59.528;17.886;2023-10-09T08:07:44;0.43;;;0.40;;
70832;SDS011;71099;59.528;17.886;2023-10-09T08:10:20;0.47;;;0.30;;
70832;SDS011;71099;59.528;17.886;2023-10-09T08:12:46;0.32;;;0.30;;
70832;SDS011;71099;59.528;17.886;2023-10-09T08:15:12;0.80;;;0.43;;
70832;SDS011;71099;59.528;17.886;2023-10-09T08:20:30;0.20;;;0.20;;
70832;SDS011;71099;59.528;17.886;2023-10-09T08:23:14;0.35;;;0.20;;
70832;SDS011;71099;59.528;17.886;2023-10-09T08:25:58;1.30;;;0.35;;
70832;SDS011;71099;59.528;17.886;2023-10-09T08:28:39;0.32;;;0.20;;
70832;SDS011;71099;59.528;17.886;2023-10-09T08:31:12;0.90;;;0.38;;
70832;SDS011;71099;59.528;17.886;2023-10-09T08:33:47;0.20;;;0.20;;
70832;SDS011;71099;59.528;17.886;2023-10-09T08:36:24;1.63;;;0.60;;
70832;SDS011;71099;59.528;17.886;2023-10-09T08:38:53;0.82;;;0.40;;
70832;SDS011;71099;59.528;17.886;2023-10-09T08:41:26;4.30;;;1.00;;
70832;SDS011;71099;59.528;17.886;2023-10-09T08:43:55;0.22;;;0.22;;
70832;SDS011;71099;59.528;17.886;2023-10-09T08:46:23;1.58;;;0.30;;
70832;SDS011;71099;59.528;17.886;2023-10-09T08:48:52;0.50;;;0.50;;
70832;SDS011;71099;59.528;17.886;2023-10-09T08:51:20;0.65;;;0.22;;
70832;SDS011;71099;59.528;17.886;2023-10-09T08:53:47;0.40;;;0.30;;
70832;SDS011;71099;59.528;17.886;2023-10-09T08:56:13;0.30;;;0.20;;
70832;SDS011;71099;59.528;17.886;2023-10-09T08:58:47;1.13;;;0.43;;
70832;SDS011;71099;59.528;17.886;2023-10-09T09:01:15;0.25;;;0.25;;
70832;SDS011;71099;59.528;17.886;2023-10-09T09:03:42;0.80;;;0.35;;
70832;SDS011;71099;59.528;17.886;2023-10-09T09:06:10;0.52;;;0.30;;
70832;SDS011;71099;59.528;17.886;2023-10-09T09:08:39;1.98;;;0.30;;
70832;SDS011;71099;59.528;17.886;2023-10-09T09:11:16;1.75;;;0.20;;
70832;SDS011;71099;59.528;17.886;2023-10-09T09:13:48;0.93;;;0.40;;
70832;SDS011;71099;59.528;17.886;2023-10-09T09:16:43;1.23;;;0.40;;
70832;SDS011;71099;59.528;17.886;2023-10-09T09:19:13;1.23;;;0.57;;
70832;SDS011;71099;59.528;17.886;2023-10-09T09:24:19;0.75;;;0.43;;
70832;SDS011;71099;59.528;17.886;2023-10-09T09:26:54;0.60;;;0.28;;
70832;SDS011;71099;59.528;17.886;2023-10-09T09:29:24;1.48;;;0.50;;
70832;SDS011;71099;59.528;17.886;2023-10-09T09:32:10;1.58;;;0.93;;
70832;SDS011;71099;59.528;17.886;2023-10-09T09:37:21;0.85;;;0.43;;
70832;SDS011;71099;59.528;17.886;2023-10-09T09:39:54;0.55;;;0.30;;
70832;SDS011;71099;59.528;17.886;2023-10-09T09:42:20;0.55;;;0.15;;
70832;SDS011;71099;59.528;17.886;2023-10-09T09:44:52;0.55;;;0.20;;
70832;SDS011;71099;59.528;17.886;2023-10-09T09:47:20;1.65;;;0.95;;
70832;SDS011;71099;59.528;17.886;2023-10-09T09:49:56;0.25;;;0.20;;
70832;SDS011;71099;59.528;17.886;2023-10-09T09:52:26;0.43;;;0.20;;
70832;SDS011;71099;59.528;17.886;2023-10-09T09:54:53;0.30;;;0.30;;
70832;SDS011;71099;59.528;17.886;2023-10-09T09:57:20;2.47;;;0.38;;
70832;SDS011;71099;59.528;17.886;2023-10-09T09:59:51;0.35;;;0.28;;
70832;SDS011;71099;59.528;17.886;2023-10-09T10:02:27;0.47;;;0.38;;
70832;SDS011;71099;59.528;17.886;2023-10-09T10:04:58;4.43;;;0.60;;
70832;SDS011;71099;59.528;17.886;2023-10-09T10:07:29;0.95;;;0.50;;
70832;SDS011;71099;59.528;17.886;2023-10-09T10:10:06;1.27;;;0.52;;
70832;SDS011;71099;59.528;17.886;2023-10-09T10:12:58;1.50;;;0.30;;
70832;SDS011;71099;59.528;17.886;2023-10-09T10:18:33;0.57;;;0.30;;
70832;SDS011;71099;59.528;17.886;2023-10-09T10:21:18;0.90;;;0.40;;
70832;SDS011;71099;59.528;17.886;2023-10-09T10:24:01;0.90;;;0.40;;
70832;SDS011;71099;59.528;17.886;2023-10-09T10:26:37;1.23;;;0.50;;
70832;SDS011;71099;59.528;17.886;2023-10-09T10:29:18;1.17;;;0.25;;
70832;SDS011;71099;59.528;17.886;2023-10-09T10:37:12;0.75;;;0.28;;
70832;SDS011;71099;59.528;17.886;2023-10-09T10:39:49;1.83;;;0.55;;
70832;SDS011;71099;59.528;17.886;2023-10-09T10:42:15;0.40;;;0.30;;
70832;SDS011;71099;59.528;17.886;2023-10-09T10:45:02;0.40;;;0.30;;
70832;SDS011;71099;59.528;17.886;2023-10-09T10:47:28;0.38;;;0.30;;
70832;SDS011;71099;59.528;17.886;2023-10-09T10:49:59;0.55;;;0.30;;
70832;SDS011;71099;59.528;17.886;2023-10-09T10:52:45;0.30;;;0.17;;
70832;SDS011;71099;59.528;17.886;2023-10-09T10:55:15;1.00;;;0.32;;
70832;SDS011;71099;59.528;17.886;2023-10-09T10:57:44;0.80;;;0.30;;
70832;SDS011;71099;59.528;17.886;2023-10-09T11:00:25;0.82;;;0.22;;
70832;SDS011;71099;59.528;17.886;2023-10-09T11:03:10;1.77;;;0.40;;
70832;SDS011;71099;59.528;17.886;2023-10-09T11:05:44;0.35;;;0.32;;
70832;SDS011;71099;59.528;17.886;2023-10-09T11:08:24;1.92;;;0.65;;
70832;SDS011;71099;59.528;17.886;2023-10-09T11:11:09;0.32;;;0.30;;
70832;SDS011;71099;59.528;17.886;2023-10-09T11:13:40;0.98;;;0.32;;
70832;SDS011;71099;59.528;17.886;2023-10-09T11:16:22;1.15;;;0.32;;
70832;SDS011;71099;59.528;17.886;2023-10-09T11:19:14;0.20;;;0.20;;
70832;SDS011;71099;59.528;17.886;2023-10-09T11:21:53;0.60;;;0.22;;
70832;SDS011;71099;59.528;17.886;2023-10-09T11:24:31;0.20;;;0.20;;
70832;SDS011;71099;59.528;17.886;2023-10-09T11:27:06;2.40;;;0.43;;
70832;SDS011;71099;59.528;17.886;2023-10-09T11:29:34;0.10;;;0.10;;
70832;SDS011;71099;59.528;17.886;2023-10-09T11:32:14;0.20;;;0.20;;
70832;SDS011;71099;59.528;17.886;2023-10-09T11:35:29;2.17;;;1.27;;
70832;SDS011;71099;59.528;17.886;2023-10-09T11:37:55;0.57;;;0.43;;
70832;SDS011;71099;59.528;17.886;2023-10-09T11:40:26;1.50;;;0.32;;
70832;SDS011;71099;59.528;17.886;2023-10-09T11:43:15;0.60;;;0.28;;
70832;SDS011;71099;59.528;17.886;2023-10-09T11:45:40;1.95;;;0.20;;
70832;SDS011;71099;59.528;17.886;2023-10-09T11:48:19;1.40;;;0.50;;
70832;SDS011;71099;59.528;17.886;2023-10-09T11:50:58;0.35;;;0.20;;
70832;SDS011;71099;59.528;17.886;2023-10-09T11:53:39;0.32;;;0.20;;
70832;SDS011;71099;59.528;17.886;2023-10-09T11:56:23;0.50;;;0.30;;
70832;SDS011;71099;59.528;17.886;2023-10-09T11:58:52;1.25;;;0.50;;
70832;SDS011;71099;59.528;17.886;2023-10-09T12:01:18;1.30;;;0.35;;
70832;SDS011;71099;59.528;17.886;2023-10-09T12:03:48;0.30;;;0.30;;
70832;SDS011;71099;59.528;17.886;2023-10-09T12:06:21;0.20;;;0.10;;
70832;SDS011;71099;59.528;17.886;2023-10-09T12:08:55;1.23;;;0.28;;
70832;SDS011;71099;59.528;17.886;2023-10-09T12:11:23;0.35;;;0.20;;
70832;SDS011;71099;59.528;17.886;2023-10-09T12:13:53;0.60;;;0.28;;
70832;SDS011;71099;59.528;17.886;2023-10-09T12:16:21;0.55;;;0.20;;
70832;SDS011;71099;59.528;17.886;2023-10-09T12:18:53;0.65;;;0.32;;
70832;SDS011;71099;59.528;17.886;2023-10-09T12:21:19;0.68;;;0.45;;
70832;SDS011;71099;59.528;17.886;2023-10-09T12:23:45;0.40;;;0.38;;
70832;SDS011;71099;59.528;17.886;2023-10-09T12:26:12;1.08;;;0.88;;
70832;SDS011;71099;59.528;17.886;2023-10-09T12:28:40;1.08;;;0.35;;
70832;SDS011;71099;59.528;17.886;2023-10-09T12:31:14;2.30;;;0.25;;
70832;SDS011;71099;59.528;17.886;2023-10-09T12:33:40;0.85;;;0.28;;
70832;SDS011;71099;59.528;17.886;2023-10-09T12:36:06;9.35;;;0.52;;
70832;SDS011;71099;59.528;17.886;2023-10-09T12:38:42;0.43;;;0.20;;
70832;SDS011;71099;59.528;17.886;2023-10-09T12:41:11;0.63;;;0.30;;
70832;SDS011;71099;59.528;17.886;2023-10-09T12:43:50;0.55;;;0.30;;
70832;SDS011;71099;59.528;17.886;2023-10-09T12:46:17;2.47;;;0.40;;
70832;SDS011;71099;59.528;17.886;2023-10-09T12:48:44;0.80;;;0.52;;
70832;SDS011;71099;59.528;17.886;2023-10-09T12:51:15;0.85;;;0.40;;
70832;SDS011;71099;59.528;17.886;2023-10-09T12:53:45;1.08;;;0.50;;
70832;SDS011;71099;59.528;17.886;2023-10-09T12:56:13;1.35;;;0.55;;
70832;SDS011;71099;59.528;17.886;2023-10-09T12:58:40;0.55;;;0.40;;
70832;SDS011;71099;59.528;17.886;2023-10-09T13:01:17;0.60;;;0.57;;
70832;SDS011;71099;59.528;17.886;2023-10-09T13:03:44;1.10;;;0.50;;
70832;SDS011;71099;59.528;17.886;2023-10-09T13:06:14;2.47;;;0.43;;
70832;SDS011;71099;59.528;17.886;2023-10-09T13:08:40;1.17;;;0.40;;
70832;SDS011;71099;59.528;17.886;2023-10-09T13:11:06;0.40;;;0.30;;
70832;SDS011;71099;59.528;17.886;2023-10-09T13:13:36;0.30;;;0.30;;
70832;SDS011;71099;59.528;17.886;2023-10-09T13:16:13;1.02;;;0.40;;
70832;SDS011;71099;59.528;17.886;2023-10-09T13:18:52;1.92;;;0.40;;
70832;SDS011;71099;59.528;17.886;2023-10-09T13:21:22;1.30;;;0.40;;
70832;SDS011;71099;59.528;17.886;2023-10-09T13:23:49;0.55;;;0.20;;
70832;SDS011;71099;59.528;17.886;2023-10-09T13:26:19;0.65;;;0.35;;
70832;SDS011;71099;59.528;17.886;2023-10-09T13:28:57;0.50;;;0.30;;
70832;SDS011;71099;59.528;17.886;2023-10-09T13:31:24;0.65;;;0.20;;
70832;SDS011;71099;59.528;17.886;2023-10-09T13:33:56;0.45;;;0.38;;
70832;SDS011;71099;59.528;17.886;2023-10-09T13:36:24;1.48;;;0.25;;
70832;SDS011;71099;59.528;17.886;2023-10-09T13:39:14;0.57;;;0.25;;
70832;SDS011;71099;59.528;17.886;2023-10-09T13:41:50;0.45;;;0.30;;
70832;SDS011;71099;59.528;17.886;2023-10-09T13:44:26;0.65;;;0.38;;
70832;SDS011;71099;59.528;17.886;2023-10-09T13:47:04;0.68;;;0.40;;
70832;SDS011;71099;59.528;17.886;2023-10-09T13:49:30;0.60;;;0.30;;
70832;SDS011;71099;59.528;17.886;2023-10-09T13:51:57;1.70;;;0.30;;
70832;SDS011;71099;59.528;17.886;2023-10-09T13:54:26;0.57;;;0.30;;
70832;SDS011;71099;59.528;17.886;2023-10-09T13:57:01;0.47;;;0.28;;
70832;SDS011;71099;59.528;17.886;2023-10-09T13:59:34;1.40;;;0.40;;
70832;SDS011;71099;59.528;17.886;2023-10-09T14:02:01;0.75;;;0.43;;
70832;SDS011;71099;59.528;17.886;2023-10-09T14:04:27;0.55;;;0.30;;
70832;SDS011;71099;59.528;17.886;2023-10-09T14:06:53;11.95;;;5.70;;
70832;SDS011;71099;59.528;17.886;2023-10-09T14:09:22;24.45;;;10.95;;
70832;SDS011;71099;59.528;17.886;2023-10-09T14:12:03;23.02;;;8.57;;
70832;SDS011;71099;59.528;17.886;2023-10-09T14:14:33;17.83;;;9.40;;
70832;SDS011;71099;59.528;17.886;2023-10-09T14:16:58;17.10;;;9.07;;
70832;SDS011;71099;59.528;17.886;2023-10-09T14:19:24;12.18;;;6.70;;
70832;SDS011;71099;59.528;17.886;2023-10-09T14:21:49;6.70;;;3.38;;
70832;SDS011;71099;59.528;17.886;2023-10-09T14:24:16;20.02;;;9.65;;
70832;SDS011;71099;59.528;17.886;2023-10-09T14:26:42;2.47;;;1.92;;
70832;SDS011;71099;59.528;17.886;2023-10-09T14:29:12;3.95;;;1.90;;
70832;SDS011;71099;59.528;17.886;2023-10-09T14:31:42;2.78;;;1.33;;
70832;SDS011;71099;59.528;17.886;2023-10-09T14:34:08;7.80;;;3.25;;
70832;SDS011;71099;59.528;17.886;2023-10-09T14:36:34;4.10;;;1.30;;
70832;SDS011;71099;59.528;17.886;2023-10-09T14:39:00;0.75;;;0.30;;
70832;SDS011;71099;59.528;17.886;2023-10-09T14:41:27;4.68;;;1.90;;
70832;SDS011;71099;59.528;17.886;2023-10-09T14:43:53;3.22;;;0.85;;
70832;SDS011;71099;59.528;17.886;2023-10-09T14:46:19;2.97;;;0.40;;
70832;SDS011;71099;59.528;17.886;2023-10-09T14:48:50;1.02;;;0.40;;
70832;SDS011;71099;59.528;17.886;2023-10-09T14:51:18;1.88;;;0.73;;
70832;SDS011;71099;59.528;17.886;2023-10-09T14:54:00;2.50;;;0.40;;
70832;SDS011;71099;59.528;17.886;2023-10-09T14:56:29;0.90;;;0.50;;
70832;SDS011;71099;59.528;17.886;2023-10-09T14:58:58;1.08;;;0.40;;
70832;SDS011;71099;59.528;17.886;2023-10-09T15:01:28;4.68;;;0.68;;
70832;SDS011;71099;59.528;17.886;2023-10-09T15:03:57;2.58;;;0.30;;
70832;SDS011;71099;59.528;17.886;2023-10-09T15:06:25;0.75;;;0.30;;
70832;SDS011;71099;59.528;17.886;2023-10-09T15:08:55;1.08;;;0.43;;
70832;SDS011;71099;59.528;17.886;2023-10-09T15:11:23;0.38;;;0.20;;
70832;SDS011;71099;59.528;17.886;2023-10-09T15:13:50;0.32;;;0.30;;
70832;SDS011;71099;59.528;17.886;2023-10-09T15:16:17;1.25;;;0.40;;
70832;SDS011;71099;59.528;17.886;2023-10-09T15:18:43;0.52;;;0.20;;
70832;SDS011;71099;59.528;17.886;2023-10-09T15:21:08;0.40;;;0.22;;
70832;SDS011;71099;59.528;17.886;2023-10-09T15:23:34;0.30;;;0.30;;
70832;SDS011;71099;59.528;17.886;2023-10-09T15:26:01;0.85;;;0.30;;
70832;SDS011;71099;59.528;17.886;2023-10-09T15:28:27;0.63;;;0.30;;
70832;SDS011;71099;59.528;17.886;2023-10-09T15:30:57;2.20;;;0.25;;
70832;SDS011;71099;59.528;17.886;2023-10-09T15:33:24;0.30;;;0.30;;
70832;SDS011;71099;59.528;17.886;2023-10-09T15:35:51;0.20;;;0.17;;
70832;SDS011;71099;59.528;17.886;2023-10-09T15:38:17;3.72;;;0.68;;
70832;SDS011;71099;59.528;17.886;2023-10-09T15:40:44;2.08;;;0.40;;
70832;SDS011;71099;59.528;17.886;2023-10-09T15:43:12;0.50;;;0.35;;
70832;SDS011;71099;59.528;17.886;2023-10-09T15:45:42;2.28;;;0.65;;